Time;durP1;ratioP1;P1;durP2;ratioP2;P2;SDS_P1;SDS_P2;PMS_P1;PMS_P2;Temp;Humidity;BMP_temperature;BMP_pressure;BME280_temperature;BME280_humidity;BME280_pressure;Samples;Min_cycle;Max_cycle;Signal;HPM_P1;HPM_P2
2021/01/12 00:00:09;;;;;;;10.00;3.92;;;7.10;94.30;;;;;;5013507;28;20463;-81
2021/01/12 00:02:35;;;;;;;15.32;4.97;;;7.20;94.30;;;;;;5012575;28;20036;-82
2021/01/12 00:05:00;;;;;;;9.65;4.20;;;7.20;94.30;;;;;;5013968;28;20522;-82
2021/01/12 00:07:26;;;;;;;9.35;4.72;;;7.10;94.30;;;;;;5012455;28;20100;-82
2021/01/12 00:09:52;;;;;;;8.55;3.80;;;7.20;94.30;;;;;;4995100;28;20526;-83
2021/01/12 00:12:18;;;;;;;10.32;4.38;;;7.20;94.30;;;;;;5012728;28;20026;-83
2021/01/12 00:14:45;;;;;;;10.82;3.67;;;7.20;94.30;;;;;;4994864;28;20046;-83
2021/01/12 00:17:11;;;;;;;8.38;3.60;;;7.20;94.40;;;;;;5018590;28;20038;-83
2021/01/12 00:19:37;;;;;;;7.57;3.83;;;7.30;94.40;;;;;;5006461;28;20102;-83
2021/01/12 00:22:13;;;;;;;13.98;3.92;;;7.20;94.40;;;;;;5013334;28;20475;-82
2021/01/12 00:24:43;;;;;;;12.70;4.63;;;7.30;94.50;;;;;;4996510;28;20017;-82
2021/01/12 00:27:09;;;;;;;9.95;4.57;;;7.30;94.50;;;;;;5004348;28;20229;-83
2021/01/12 00:29:35;;;;;;;7.90;3.72;;;7.30;94.50;;;;;;5018097;28;20014;-82
2021/01/12 00:32:01;;;;;;;8.48;3.42;;;7.30;94.50;;;;;;5014208;28;20097;-82
2021/01/12 00:34:26;;;;;;;9.52;4.28;;;7.30;94.50;;;;;;5012698;28;20074;-83
2021/01/12 00:36:52;;;;;;;8.02;4.28;;;7.30;94.50;;;;;;4995678;28;20029;-82
2021/01/12 00:39:20;;;;;;;10.82;4.15;;;7.30;94.50;;;;;;5013366;28;20096;-82
2021/01/12 00:41:51;;;;;;;8.15;4.18;;;7.40;94.60;;;;;;4994398;28;20014;-81
2021/01/12 00:44:17;;;;;;;10.85;4.40;;;7.40;94.60;;;;;;4995237;28;20033;-82
2021/01/12 00:46:46;;;;;;;14.65;5.72;;;7.40;94.60;;;;;;5012914;28;20255;-83
2021/01/12 00:49:13;;;;;;;11.45;4.80;;;7.30;94.60;;;;;;4996733;28;20455;-82
2021/01/12 00:51:40;;;;;;;10.55;4.85;;;7.30;94.70;;;;;;5012954;28;20025;-82
2021/01/12 00:54:22;;;;;;;12.02;4.82;;;7.40;94.70;;;;;;5012972;28;20018;-81
2021/01/12 00:56:48;;;;;;;9.48;4.50;;;7.40;94.90;;;;;;4994612;28;20066;-82
2021/01/12 00:59:14;;;;;;;10.90;5.07;;;7.40;94.70;;;;;;5012659;28;20026;-81
2021/01/12 01:01:40;;;;;;;11.18;5.25;;;7.40;94.70;;;;;;5012302;28;20371;-81
2021/01/12 01:04:07;;;;;;;11.90;5.60;;;7.40;94.70;;;;;;5013108;28;20021;-82
2021/01/12 01:06:33;;;;;;;9.45;4.70;;;7.40;94.80;;;;;;4994421;28;20060;-82
2021/01/12 01:08:59;;;;;;;9.00;4.38;;;7.40;94.80;;;;;;5014268;28;20022;-81
2021/01/12 01:11:25;;;;;;;13.45;4.68;;;7.40;94.80;;;;;;5013505;28;20025;-81
2021/01/12 01:13:50;;;;;;;10.43;5.22;;;7.30;94.90;;;;;;5012658;28;20030;-81
2021/01/12 01:16:16;;;;;;;9.95;3.72;;;7.30;94.90;;;;;;5012947;28;20034;-80
2021/01/12 01:18:42;;;;;;;17.80;5.80;;;7.30;94.90;;;;;;4994447;28;20442;-81
2021/01/12 01:21:12;;;;;;;8.57;4.18;;;7.30;94.90;;;;;;4995230;28;20076;-81
2021/01/12 01:23:38;;;;;;;9.75;4.55;;;7.40;95.00;;;;;;4994497;28;20353;-81
2021/01/12 01:26:04;;;;;;;9.38;5.18;;;7.40;95.00;;;;;;5012719;28;20093;-81
2021/01/12 01:28:30;;;;;;;8.18;4.10;;;7.40;95.00;;;;;;5012019;28;20060;-81
2021/01/12 01:30:55;;;;;;;10.63;4.05;;;7.40;95.00;;;;;;5012626;28;20065;-82
2021/01/12 01:33:21;;;;;;;10.13;3.95;;;7.40;95.00;;;;;;4995232;28;20040;-79
2021/01/12 01:35:47;;;;;;;10.15;4.05;;;7.30;95.00;;;;;;5011986;28;20029;-79
2021/01/12 01:38:13;;;;;;;9.20;4.57;;;7.40;95.10;;;;;;5012418;28;20529;-80
2021/01/12 01:40:39;;;;;;;8.52;3.42;;;7.40;95.10;;;;;;5011723;28;20060;-81
2021/01/12 01:43:05;;;;;;;7.45;3.60;;;7.30;95.10;;;;;;5012648;28;20057;-80
2021/01/12 01:45:30;;;;;;;8.38;3.30;;;7.40;95.20;;;;;;5011772;28;20482;-81
2021/01/12 01:47:57;;;;;;;5.95;3.30;;;7.40;95.20;;;;;;5012326;28;20029;-80
2021/01/12 01:50:23;;;;;;;8.68;4.53;;;7.40;95.20;;;;;;5012465;28;20017;-80
2021/01/12 01:52:51;;;;;;;7.20;3.72;;;7.40;95.20;;;;;;5029606;28;20022;-80
2021/01/12 01:55:18;;;;;;;5.53;2.50;;;7.40;95.20;;;;;;5016210;28;20112;-81
2021/01/12 01:57:43;;;;;;;8.35;2.72;;;7.40;95.30;;;;;;4998026;28;20030;-81
2021/01/12 02:00:10;;;;;;;5.43;2.35;;;7.40;95.30;;;;;;5016204;28;20026;-80
2021/01/12 02:03:07;;;;;;;7.10;2.88;;;7.40;95.20;;;;;;5015469;28;20018;-80
2021/01/12 02:05:35;;;;;;;8.07;3.13;;;7.40;95.30;;;;;;5015307;28;20033;-80
2021/01/12 02:08:11;;;;;;;10.32;3.80;;;7.40;95.30;;;;;;4998368;28;20509;-80
2021/01/12 02:10:42;;;;;;;9.60;4.35;;;7.40;95.30;;;;;;4997738;28;20029;-80
2021/01/12 02:13:13;;;;;;;6.35;2.63;;;7.40;95.40;;;;;;4998456;28;20446;-80
2021/01/12 02:15:39;;;;;;;7.70;4.10;;;7.40;95.40;;;;;;4997223;28;20080;-81
2021/01/12 02:18:07;;;;;;;6.30;2.80;;;7.40;95.40;;;;;;5015858;28;20018;-80
2021/01/12 02:20:34;;;;;;;8.15;3.25;;;7.40;95.40;;;;;;4997512;28;20045;-81
2021/01/12 02:23:20;;;;;;;7.25;2.95;;;7.40;95.40;;;;;;5015456;28;20022;-80
2021/01/12 02:25:51;;;;;;;7.32;3.38;;;7.50;95.40;;;;;;5014770;28;20463;-80
2021/01/12 02:28:19;;;;;;;8.95;3.50;;;7.40;95.40;;;;;;4998156;28;20026;-80
2021/01/12 02:30:45;;;;;;;7.20;3.10;;;7.40;95.40;;;;;;5015038;28;20022;-80
2021/01/12 02:33:11;;;;;;;6.93;3.15;;;7.50;95.50;;;;;;5015499;28;20014;-80
2021/01/12 02:35:40;;;;;;;10.27;3.35;;;7.50;95.60;;;;;;4997200;28;20439;-81
2021/01/12 02:38:06;;;;;;;6.70;3.10;;;7.50;95.50;;;;;;4997851;28;20018;-79
2021/01/12 02:40:32;;;;;;;6.57;2.80;;;7.50;95.60;;;;;;4997225;28;20037;-82
2021/01/12 02:42:58;;;;;;;4.93;2.17;;;7.50;95.60;;;;;;4997565;28;20045;-79
2021/01/12 02:45:24;;;;;;;6.57;2.55;;;7.50;95.60;;;;;;4997596;28;20014;-79
2021/01/12 02:47:50;;;;;;;6.47;2.38;;;7.50;95.60;;;;;;4996939;28;20475;-80
2021/01/12 02:50:16;;;;;;;6.47;2.55;;;7.50;95.60;;;;;;5015058;28;20436;-79
2021/01/12 02:52:43;;;;;;;4.72;2.28;;;7.60;95.60;;;;;;5014474;28;20096;-79
2021/01/12 02:55:10;;;;;;;4.85;1.98;;;7.60;95.60;;;;;;4997131;28;20424;-80
2021/01/12 02:57:36;;;;;;;2.95;1.95;;;7.60;95.60;;;;;;5014314;28;20483;-80
2021/01/12 03:00:05;;;;;;;3.70;1.77;;;7.60;95.60;;;;;;4997267;28;20028;-80
2021/01/12 03:02:31;;;;;;;3.75;1.30;;;7.60;95.70;;;;;;5014948;28;20010;-80
2021/01/12 03:04:56;;;;;;;5.60;1.83;;;7.60;95.70;;;;;;4995731;28;20020;-79
2021/01/12 03:07:22;;;;;;;4.65;1.85;;;7.70;95.70;;;;;;5014829;28;20301;-80
2021/01/12 03:09:48;;;;;;;4.13;1.83;;;7.70;95.70;;;;;;5014228;28;20025;-79
2021/01/12 03:12:13;;;;;;;5.72;2.95;;;7.70;96.00;;;;;;5014721;28;20340;-80
2021/01/12 03:14:41;;;;;;;3.97;1.75;;;7.70;95.80;;;;;;4996575;28;20018;-80
2021/01/12 03:17:09;;;;;;;4.43;1.85;;;7.70;95.80;;;;;;4996805;28;20486;-80
2021/01/12 03:19:35;;;;;;;3.50;1.30;;;7.70;95.80;;;;;;5014550;28;20022;-82
2021/01/12 03:22:01;;;;;;;4.32;1.67;;;7.70;95.80;;;;;;5014655;28;20554;-80
2021/01/12 03:24:27;;;;;;;4.05;1.80;;;7.70;95.80;;;;;;5014644;28;20134;-79
2021/01/12 03:26:52;;;;;;;4.82;1.83;;;7.80;95.90;;;;;;5013896;28;20022;-79
2021/01/12 03:29:18;;;;;;;3.13;1.77;;;7.80;95.80;;;;;;5018168;28;20469;-80
2021/01/12 03:31:43;;;;;;;2.80;1.25;;;7.80;95.80;;;;;;5017129;28;20028;-80
2021/01/12 03:34:09;;;;;;;2.35;1.38;;;7.80;95.90;;;;;;5014507;28;20049;-79
2021/01/12 03:36:35;;;;;;;2.85;1.20;;;7.80;95.80;;;;;;5013912;28;20029;-79
2021/01/12 03:39:00;;;;;;;3.25;2.45;;;7.80;95.80;;;;;;4995860;28;20462;-78
2021/01/12 03:41:26;;;;;;;2.25;1.00;;;7.80;95.80;;;;;;4996654;28;20053;-78
2021/01/12 03:43:52;;;;;;;3.20;1.15;;;7.80;95.90;;;;;;4995790;28;20360;-79
2021/01/12 03:46:18;;;;;;;2.08;1.23;;;7.80;95.90;;;;;;5013952;28;20053;-80
2021/01/12 03:48:44;;;;;;;3.60;1.20;;;7.90;95.90;;;;;;4995666;28;20029;-80
2021/01/12 03:51:10;;;;;;;1.73;1.30;;;7.80;95.90;;;;;;4996366;28;20018;-80
2021/01/12 03:53:35;;;;;;;3.42;1.65;;;7.90;95.90;;;;;;4995883;28;20451;-79
2021/01/12 03:56:01;;;;;;;4.00;1.52;;;7.80;96.00;;;;;;5027885;28;20482;-80
2021/01/12 03:58:27;;;;;;;2.97;1.27;;;7.90;96.00;;;;;;5013729;28;20037;-80
2021/01/12 04:00:52;;;;;;;2.80;1.50;;;7.90;96.00;;;;;;5012925;28;20444;-80
2021/01/12 04:03:19;;;;;;;2.38;1.17;;;7.90;96.00;;;;;;5013104;28;20028;-79
2021/01/12 04:05:45;;;;;;;1.92;1.17;;;7.90;96.00;;;;;;5012678;28;20021;-79
2021/01/12 04:08:11;;;;;;;2.58;1.67;;;7.90;96.00;;;;;;5013669;28;20026;-78
2021/01/12 04:10:37;;;;;;;1.98;0.93;;;7.90;96.00;;;;;;5013021;28;20100;-79
2021/01/12 04:13:03;;;;;;;2.35;1.27;;;7.90;96.00;;;;;;4994526;28;20024;-78
2021/01/12 04:15:29;;;;;;;1.33;1.10;;;7.90;96.10;;;;;;5011669;28;20477;-80
2021/01/12 04:17:55;;;;;;;3.33;1.40;;;7.90;96.10;;;;;;5011596;28;20022;-80
2021/01/12 04:20:20;;;;;;;4.53;1.35;;;7.90;96.10;;;;;;4994767;28;20447;-80
2021/01/12 04:22:46;;;;;;;2.63;1.15;;;7.90;96.10;;;;;;5012090;28;20022;-80
2021/01/12 04:25:12;;;;;;;3.17;1.15;;;7.90;96.10;;;;;;5012544;28;20025;-79
2021/01/12 04:27:39;;;;;;;1.85;0.95;;;7.90;96.10;;;;;;5013274;28;20072;-78
2021/01/12 04:30:06;;;;;;;2.03;1.15;;;7.90;96.10;;;;;;4995525;28;20032;-79
2021/01/12 04:32:32;;;;;;;3.15;1.20;;;8.00;96.10;;;;;;4995501;28;20022;-79
2021/01/12 04:34:57;;;;;;;1.38;0.90;;;8.00;96.10;;;;;;4995055;28;20021;-80
2021/01/12 04:37:23;;;;;;;2.88;1.20;;;8.00;96.10;;;;;;5028281;28;20030;-80
2021/01/12 04:39:48;;;;;;;3.80;0.90;;;8.00;96.10;;;;;;4998084;28;20072;-81
2021/01/12 04:42:14;;;;;;;1.63;0.73;;;8.00;96.20;;;;;;5032059;28;20387;-79
2021/01/12 04:44:40;;;;;;;2.55;1.17;;;8.00;96.20;;;;;;5014703;28;20022;-77
2021/01/12 04:47:07;;;;;;;1.25;1.00;;;8.00;96.20;;;;;;5032852;28;20032;-80
2021/01/12 04:49:33;;;;;;;0.95;0.80;;;8.00;96.20;;;;;;5032616;28;20027;-80
2021/01/12 04:52:01;;;;;;;2.08;1.23;;;8.00;96.10;;;;;;5032390;28;20026;-80
2021/01/12 04:54:35;;;;;;;1.63;1.00;;;8.00;96.20;;;;;;5032596;28;20064;-79
2021/01/12 04:57:02;;;;;;;1.25;0.90;;;8.00;96.20;;;;;;5014105;28;20266;-79
2021/01/12 04:59:33;;;;;;;2.03;1.00;;;8.00;96.20;;;;;;5032430;28;20021;-80
2021/01/12 05:01:58;;;;;;;3.08;1.45;;;8.00;96.30;;;;;;5014042;28;20025;-80
2021/01/12 05:04:24;;;;;;;3.30;1.05;;;8.00;96.20;;;;;;5021883;28;20022;-80
2021/01/12 05:06:53;;;;;;;2.15;1.00;;;8.00;96.20;;;;;;5011824;28;20025;-79
2021/01/12 05:09:20;;;;;;;2.47;1.10;;;8.10;96.60;;;;;;5012367;28;20029;-80
2021/01/12 05:11:47;;;;;;;1.42;1.00;;;8.10;96.30;;;;;;5010075;28;20017;-71
2021/01/12 05:14:15;;;;;;;1.95;1.23;;;8.00;96.30;;;;;;4992310;28;20101;-71
2021/01/12 05:16:55;;;;;;;1.77;0.88;;;8.10;96.40;;;;;;5010098;28;20038;-69
2021/01/12 05:19:23;;;;;;;2.00;0.98;;;8.10;96.40;;;;;;5010092;28;20025;-70
2021/01/12 05:21:49;;;;;;;1.60;0.80;;;8.10;96.40;;;;;;5009782;28;20105;-71
2021/01/12 05:24:20;;;;;;;1.55;1.10;;;8.10;96.40;;;;;;4992240;28;20060;-72
2021/01/12 05:26:46;;;;;;;1.15;0.73;;;8.10;96.40;;;;;;5008877;28;20022;-71
2021/01/12 05:29:12;;;;;;;1.40;0.90;;;8.10;96.40;;;;;;5009956;28;20041;-70
2021/01/12 05:31:38;;;;;;;2.22;1.00;;;8.10;96.40;;;;;;5009739;28;20125;-72
2021/01/12 05:34:06;;;;;;;1.60;0.80;;;8.20;96.50;;;;;;5009188;28;20761;-72
2021/01/12 05:36:33;;;;;;;2.72;1.00;;;8.20;96.40;;;;;;5009525;28;20111;-72
2021/01/12 05:39:01;;;;;;;1.95;0.85;;;8.20;96.40;;;;;;4991124;28;20014;-71
2021/01/12 05:41:28;;;;;;;1.55;0.98;;;8.20;96.50;;;;;;5009939;28;20018;-71
2021/01/12 05:43:55;;;;;;;1.60;1.10;;;8.20;96.40;;;;;;5009017;28;20025;-71
2021/01/12 05:46:21;;;;;;;4.15;1.00;;;8.20;96.50;;;;;;5009872;28;20461;-71
2021/01/12 05:48:47;;;;;;;1.15;0.70;;;8.20;96.50;;;;;;5008958;28;20026;-72
2021/01/12 05:51:14;;;;;;;0.93;0.77;;;8.20;96.50;;;;;;5009356;28;20433;-71
2021/01/12 05:53:46;;;;;;;1.50;0.93;;;8.20;96.50;;;;;;4992115;28;20018;-72
2021/01/12 05:56:31;;;;;;;2.42;1.38;;;8.20;96.50;;;;;;5012598;28;20049;-82
2021/01/12 05:58:58;;;;;;;1.60;1.13;;;8.20;96.50;;;;;;5011628;28;20447;-81
2021/01/12 06:01:44;;;;;;;1.15;0.82;;;8.20;96.50;;;;;;5012585;28;20029;-81
2021/01/12 06:04:12;;;;;;;1.48;0.98;;;8.30;96.60;;;;;;4994041;28;20018;-81
2021/01/12 06:06:40;;;;;;;1.45;1.27;;;8.20;96.60;;;;;;4994525;28;20056;-81
2021/01/12 06:09:10;;;;;;;1.48;0.95;;;8.30;96.60;;;;;;5011718;28;20025;-81
2021/01/12 06:11:37;;;;;;;1.30;0.95;;;8.20;96.60;;;;;;5012152;28;20045;-81
2021/01/12 06:14:12;;;;;;;1.38;0.85;;;8.20;96.60;;;;;;5011778;28;20053;-82
2021/01/12 06:16:40;;;;;;;1.08;0.98;;;8.20;96.70;;;;;;4994721;28;20026;-80
2021/01/12 06:19:07;;;;;;;1.15;0.85;;;8.20;96.70;;;;;;4993982;28;20022;-81
2021/01/12 06:21:54;;;;;;;2.17;0.80;;;8.20;96.80;;;;;;4994250;28;20053;-81
2021/01/12 06:24:38;;;;;;;1.48;0.77;;;8.30;96.70;;;;;;4994492;28;20053;-81
2021/01/12 06:27:17;;;;;;;0.95;0.68;;;8.30;96.80;;;;;;5011600;28;20112;-82
2021/01/12 06:29:44;;;;;;;0.60;0.60;;;8.30;96.80;;;;;;5012396;28;20037;-82
2021/01/12 06:32:14;;;;;;;0.95;0.82;;;8.30;96.80;;;;;;5011754;28;20025;-82
2021/01/12 06:34:40;;;;;;;0.50;0.50;;;8.30;96.70;;;;;;5012540;28;20029;-81
2021/01/12 06:37:10;;;;;;;0.85;0.70;;;8.40;96.70;;;;;;5011257;28;20053;-82
2021/01/12 06:39:45;;;;;;;2.63;0.80;;;8.40;96.70;;;;;;4996528;28;20033;-82
2021/01/12 06:42:12;;;;;;;2.47;1.35;;;8.40;96.70;;;;;;5015216;28;20055;-82
2021/01/12 06:44:39;;;;;;;3.55;1.23;;;8.30;96.60;;;;;;5015639;28;20452;-82
2021/01/12 06:47:10;;;;;;;1.17;0.93;;;8.30;96.60;;;;;;4997107;28;20017;-81
2021/01/12 06:49:36;;;;;;;1.88;0.85;;;8.40;97.00;;;;;;4997385;28;20025;-82
2021/01/12 06:52:09;;;;;;;1.40;0.80;;;8.30;96.70;;;;;;4996999;28;20033;-83
2021/01/12 06:54:40;;;;;;;1.55;0.98;;;8.30;96.70;;;;;;5014728;28;20364;-81
2021/01/12 06:57:21;;;;;;;0.60;0.60;;;8.30;96.70;;;;;;4996859;28;20028;-82
2021/01/12 06:59:52;;;;;;;1.35;1.00;;;8.30;96.70;;;;;;4997504;28;20017;-83
2021/01/12 07:02:19;;;;;;;2.10;1.20;;;8.30;96.70;;;;;;5015476;28;20025;-82
2021/01/12 07:05:04;;;;;;;1.65;0.98;;;8.30;96.80;;;;;;5015443;28;20018;-81
2021/01/12 07:07:31;;;;;;;1.60;0.85;;;8.30;96.70;;;;;;4997576;28;20018;-82
2021/01/12 07:10:03;;;;;;;2.90;1.25;;;8.30;96.70;;;;;;5014422;28;20025;-82
2021/01/12 07:12:30;;;;;;;1.17;0.70;;;8.30;96.80;;;;;;5015124;28;20403;-81
2021/01/12 07:15:07;;;;;;;1.90;1.02;;;8.30;96.80;;;;;;5014328;28;20025;-82
2021/01/12 07:17:40;;;;;;;1.23;0.90;;;8.30;96.80;;;;;;5015233;28;20026;-81
2021/01/12 07:20:18;;;;;;;1.98;0.60;;;8.30;96.80;;;;;;5002388;28;20014;-81
2021/01/12 07:23:00;;;;;;;0.70;0.70;;;8.20;96.80;;;;;;5004594;28;20529;-81
2021/01/12 07:25:27;;;;;;;1.00;0.68;;;8.20;96.80;;;;;;5021479;28;20030;-78
2021/01/12 07:28:17;;;;;;;1.88;1.10;;;8.20;96.80;;;;;;5005474;28;20014;-84
2021/01/12 07:30:48;;;;;;;3.13;0.98;;;8.20;96.80;;;;;;5004303;28;20455;-80
2021/01/12 07:33:25;;;;;;;3.40;0.90;;;8.20;96.80;;;;;;5004438;28;20194;-80
2021/01/12 07:35:56;;;;;;;1.73;1.50;;;8.10;96.70;;;;;;5001610;28;20529;-81
2021/01/12 07:38:24;;;;;;;1.80;0.90;;;8.10;96.80;;;;;;5019447;28;20021;-81
2021/01/12 07:40:55;;;;;;;2.67;1.10;;;8.20;96.90;;;;;;5000634;28;20017;-80
2021/01/12 07:43:23;;;;;;;1.38;1.10;;;8.10;96.80;;;;;;5002953;28;20051;-80
2021/01/12 07:45:50;;;;;;;2.00;1.40;;;8.10;96.80;;;;;;5004785;28;20032;-79
2021/01/12 07:48:16;;;;;;;3.40;1.13;;;8.10;96.90;;;;;;5002523;28;20056;-80
2021/01/12 07:50:44;;;;;;;1.15;0.80;;;8.10;96.90;;;;;;4997335;28;20014;-80
2021/01/12 07:53:09;;;;;;;3.67;0.90;;;8.10;96.80;;;;;;5022570;28;20014;-80
2021/01/12 07:55:42;;;;;;;0.63;0.60;;;8.10;96.80;;;;;;5028888;28;20069;-79
2021/01/12 07:58:09;;;;;;;0.70;0.60;;;8.10;96.80;;;;;;5019022;28;20033;-80
2021/01/12 08:00:35;;;;;;;2.90;1.25;;;8.10;96.80;;;;;;4997073;28;20022;-80
2021/01/12 08:03:03;;;;;;;2.30;1.20;;;8.10;96.80;;;;;;5014157;28;20018;-81
2021/01/12 08:05:29;;;;;;;2.60;0.95;;;8.10;96.70;;;;;;5014237;28;20033;-81
2021/01/12 08:08:11;;;;;;;2.40;0.82;;;8.10;96.80;;;;;;5014356;28;20148;-81
2021/01/12 08:10:39;;;;;;;1.23;0.93;;;8.00;96.80;;;;;;5014126;28;20071;-79
2021/01/12 08:13:08;;;;;;;1.35;0.95;;;8.00;96.80;;;;;;4995594;28;20026;-81
2021/01/12 08:15:36;;;;;;;2.78;1.15;;;8.10;96.90;;;;;;4996012;28;20108;-81
2021/01/12 08:18:05;;;;;;;1.00;0.85;;;8.00;96.80;;;;;;4995741;28;20113;-82
2021/01/12 08:20:31;;;;;;;0.55;0.50;;;8.10;96.80;;;;;;4996293;28;20088;-81
2021/01/12 08:22:57;;;;;;;1.70;1.13;;;8.10;96.90;;;;;;5014059;28;20029;-81
2021/01/12 08:25:27;;;;;;;0.75;0.70;;;8.10;96.90;;;;;;5013998;28;20355;-81
2021/01/12 08:27:55;;;;;;;0.95;0.80;;;8.10;96.80;;;;;;4996786;28;20029;-81
2021/01/12 08:30:26;;;;;;;1.30;1.02;;;8.10;96.80;;;;;;4996138;28;20030;-81
2021/01/12 08:33:01;;;;;;;1.33;0.63;;;8.10;96.80;;;;;;5013755;28;20097;-80
2021/01/12 08:35:29;;;;;;;1.88;0.75;;;8.10;96.80;;;;;;4995967;28;20017;-80
2021/01/12 08:38:00;;;;;;;1.23;0.88;;;8.00;96.80;;;;;;4995801;28;20057;-81
2021/01/12 08:40:29;;;;;;;0.60;0.60;;;8.00;96.80;;;;;;5013092;28;20025;-80
2021/01/12 08:42:55;;;;;;;1.55;0.90;;;8.00;96.80;;;;;;5013108;28;20029;-80
2021/01/12 08:45:21;;;;;;;0.95;0.70;;;8.00;96.80;;;;;;4995239;28;20025;-80
2021/01/12 08:47:47;;;;;;;1.27;0.75;;;8.00;96.80;;;;;;4995855;28;20422;-80
2021/01/12 08:50:13;;;;;;;0.73;0.60;;;8.00;96.80;;;;;;4995132;28;20018;-80
2021/01/12 08:52:44;;;;;;;0.73;0.73;;;8.00;96.80;;;;;;5012997;28;20049;-80
2021/01/12 08:55:20;;;;;;;1.35;0.90;;;8.00;96.80;;;;;;5012773;28;20038;-80
2021/01/12 08:58:03;;;;;;;1.17;0.60;;;8.00;96.70;;;;;;5013081;28;20060;-79
2021/01/12 09:00:33;;;;;;;1.98;0.60;;;8.00;96.70;;;;;;4995575;28;20113;-79
2021/01/12 09:03:00;;;;;;;1.02;0.82;;;7.80;96.50;;;;;;5012346;28;20070;-80
2021/01/12 09:05:26;;;;;;;0.68;0.60;;;7.70;96.50;;;;;;4995290;28;20029;-80
2021/01/12 09:08:03;;;;;;;0.50;0.50;;;7.70;96.60;;;;;;5013055;28;20030;-80
2021/01/12 09:10:29;;;;;;;0.40;0.40;;;7.60;96.70;;;;;;5013138;28;20485;-80
2021/01/12 09:12:55;;;;;;;0.75;0.50;;;7.60;96.70;;;;;;4995394;28;20459;-80
2021/01/12 09:15:30;;;;;;;0.40;0.40;;;7.60;96.70;;;;;;4994844;28;20034;-80
2021/01/12 09:18:06;;;;;;;0.38;0.38;;;7.60;96.80;;;;;;4995409;28;20022;-80
2021/01/12 09:20:38;;;;;;;0.93;0.60;;;7.70;96.80;;;;;;4995298;28;20018;-79
2021/01/12 09:23:04;;;;;;;;;;;7.70;96.80;;;;;;5012914;28;20026;-80
2021/01/12 09:25:30;;;;;;;0.52;0.52;;;7.60;96.80;;;;;;5012735;28;19901;-80
2021/01/12 09:28:15;;;;;;;0.63;0.40;;;7.70;96.80;;;;;;5012983;28;20028;-80
2021/01/12 09:30:43;;;;;;;1.23;1.13;;;7.70;96.70;;;;;;5012686;28;20018;-79
2021/01/12 09:33:22;;;;;;;0.47;0.47;;;7.70;96.70;;;;;;5012041;28;20022;-80
2021/01/12 09:35:48;;;;;;;1.13;0.68;;;7.70;96.60;;;;;;4995331;28;20112;-79
2021/01/12 09:38:14;;;;;;;0.52;0.52;;;7.60;96.60;;;;;;4994620;28;20014;-79
2021/01/12 09:40:40;;;;;;;1.17;0.70;;;7.60;96.70;;;;;;5012879;28;20025;-80
2021/01/12 09:43:05;;;;;;;0.50;0.50;;;7.60;96.60;;;;;;4995354;28;20049;-80
2021/01/12 09:45:31;;;;;;;0.40;0.40;;;7.60;96.70;;;;;;5013120;28;20494;-79
2021/01/12 09:47:56;;;;;;;0.57;0.52;;;7.60;96.60;;;;;;5012595;28;20040;-79
2021/01/12 09:50:22;;;;;;;0.85;0.47;;;7.60;96.60;;;;;;5012761;28;20018;-79
2021/01/12 09:52:48;;;;;;;0.88;0.68;;;7.70;96.50;;;;;;5012618;28;20022;-80
2021/01/12 09:55:13;;;;;;;1.25;0.60;;;7.60;96.50;;;;;;5012039;28;20108;-79
2021/01/12 09:57:39;;;;;;;0.60;0.60;;;7.60;96.50;;;;;;5012085;28;20463;-79
2021/01/12 10:00:07;;;;;;;0.52;0.52;;;7.60;96.50;;;;;;4994601;28;20514;-81
2021/01/12 10:02:32;;;;;;;1.25;0.80;;;7.50;96.50;;;;;;5011770;28;20037;-79
2021/01/12 10:04:59;;;;;;;0.88;0.70;;;7.50;96.50;;;;;;5012577;28;20014;-78
2021/01/12 10:07:24;;;;;;;1.45;0.50;;;7.50;96.50;;;;;;4994396;28;20190;-78
2021/01/12 10:09:50;;;;;;;0.40;0.40;;;7.50;96.50;;;;;;4994691;28;20014;-77
2021/01/12 10:12:16;;;;;;;0.90;0.60;;;7.50;96.60;;;;;;5012133;28;20026;-78
2021/01/12 10:14:42;;;;;;;1.55;0.50;;;7.60;96.60;;;;;;4998562;28;20036;-77
2021/01/12 10:17:08;;;;;;;0.93;0.90;;;7.60;96.50;;;;;;4998124;28;20367;-79
2021/01/12 10:19:34;;;;;;;0.95;0.63;;;7.60;96.50;;;;;;4998562;28;20104;-77
2021/01/12 10:22:00;;;;;;;0.52;0.50;;;7.60;96.50;;;;;;4998436;28;20032;-78
2021/01/12 10:24:26;;;;;;;0.50;0.50;;;7.60;96.40;;;;;;4997766;28;20026;-79
2021/01/12 10:26:54;;;;;;;0.90;0.40;;;7.60;96.40;;;;;;4998307;28;20032;-78
2021/01/12 10:29:21;;;;;;;0.50;0.50;;;7.60;96.30;;;;;;4997761;28;20029;-78
2021/01/12 10:31:48;;;;;;;0.50;0.50;;;7.50;96.30;;;;;;5015565;28;20101;-78
2021/01/12 10:34:13;;;;;;;0.50;0.50;;;7.50;96.30;;;;;;4997785;28;20026;-78
2021/01/12 10:36:39;;;;;;;2.63;0.60;;;7.50;96.40;;;;;;5015416;28;20037;-78
2021/01/12 10:39:05;;;;;;;1.20;0.47;;;7.50;96.30;;;;;;5015768;28;20017;-77
2021/01/12 10:41:37;;;;;;;1.20;0.70;;;7.40;96.30;;;;;;5015296;28;20105;-78
2021/01/12 10:44:03;;;;;;;0.55;0.43;;;7.50;96.30;;;;;;5015420;28;20018;-79
2021/01/12 10:46:29;;;;;;;0.40;0.40;;;7.30;96.10;;;;;;4997444;28;20036;-78
2021/01/12 10:48:54;;;;;;;0.70;0.70;;;7.30;96.20;;;;;;4997919;28;20029;-78
2021/01/12 10:51:20;;;;;;;0.30;0.30;;;7.10;96.20;;;;;;5014751;28;20422;-78
2021/01/12 10:53:46;;;;;;;0.40;0.40;;;7.10;96.30;;;;;;4997777;28;20067;-78
2021/01/12 10:56:15;;;;;;;0.40;0.40;;;7.00;96.30;;;;;;5014789;28;20086;-78
2021/01/12 10:58:41;;;;;;;0.52;0.43;;;6.90;96.30;;;;;;5015234;28;20183;-77
2021/01/12 11:01:07;;;;;;;0.38;0.38;;;6.90;96.30;;;;;;5015186;28;20456;-77
2021/01/12 11:03:33;;;;;;;0.30;0.30;;;6.90;96.40;;;;;;5014444;28;20026;-77
2021/01/12 11:05:58;;;;;;;0.30;0.30;;;7.00;96.50;;;;;;4997473;28;20105;-77
2021/01/12 11:08:25;;;;;;;0.30;0.30;;;7.00;96.50;;;;;;5014757;28;20022;-78
2021/01/12 11:10:52;;;;;;;0.45;0.45;;;7.10;96.50;;;;;;5014984;28;20068;-78
2021/01/12 11:13:17;;;;;;;0.47;0.47;;;7.10;96.40;;;;;;4997120;28;20018;-78
2021/01/12 11:15:44;;;;;;;0.30;0.30;;;7.10;96.30;;;;;;4997468;28;20525;-77
2021/01/12 11:18:11;;;;;;;0.40;0.40;;;7.10;96.30;;;;;;4997354;28;20018;-86
2021/01/12 11:20:37;;;;;;;0.32;0.30;;;7.10;96.30;;;;;;4997413;28;20570;-76
2021/01/12 11:23:02;;;;;;;0.40;0.40;;;7.10;96.20;;;;;;5014994;28;20030;-76
2021/01/12 11:25:29;;;;;;;0.63;0.50;;;7.10;96.20;;;;;;5014257;28;20033;-76
2021/01/12 11:27:55;;;;;;;0.30;0.30;;;7.10;96.30;;;;;;5014953;28;20095;-77
2021/01/12 11:30:21;;;;;;;0.30;0.30;;;7.20;96.40;;;;;;5014062;28;20014;-76
2021/01/12 11:32:47;;;;;;;1.10;0.65;;;7.30;96.70;;;;;;5014872;28;20021;-76
2021/01/12 11:35:13;;;;;;;1.13;0.40;;;7.40;96.50;;;;;;5015518;28;20025;-79
2021/01/12 11:37:39;;;;;;;0.45;0.40;;;7.50;96.40;;;;;;5015966;28;20026;-78
2021/01/12 11:40:07;;;;;;;0.40;0.40;;;7.60;96.30;;;;;;4998888;28;20359;-78
2021/01/12 11:42:32;;;;;;;1.00;0.60;;;7.70;96.30;;;;;;4997963;28;20113;-76
2021/01/12 11:44:58;;;;;;;1.08;0.50;;;7.80;96.40;;;;;;5015701;28;20026;-77
2021/01/12 11:47:24;;;;;;;0.95;0.63;;;7.80;96.30;;;;;;5013800;28;20360;-76
2021/01/12 11:49:49;;;;;;;0.47;0.30;;;7.90;96.20;;;;;;5014560;28;20064;-76
2021/01/12 11:52:16;;;;;;;0.40;0.40;;;8.00;96.20;;;;;;5013960;28;20465;-78
2021/01/12 11:54:41;;;;;;;0.45;0.40;;;7.90;96.00;;;;;;5014101;28;20045;-77
2021/01/12 11:57:09;;;;;;;0.57;0.50;;;8.00;96.10;;;;;;5014089;28;20383;-76
2021/01/12 11:59:35;;;;;;;0.30;0.30;;;8.10;96.20;;;;;;5014436;28;20045;-77
2021/01/12 12:02:01;;;;;;;0.90;0.40;;;8.20;96.40;;;;;;5014230;28;20052;-74
2021/01/12 12:04:27;;;;;;;0.80;0.40;;;8.20;95.90;;;;;;5013514;28;20018;-75
2021/01/12 12:07:01;;;;;;;1.98;0.50;;;8.10;95.80;;;;;;5014031;28;20029;-75
2021/01/12 12:09:32;;;;;;;0.43;0.43;;;8.10;95.80;;;;;;5014023;28;20022;-74
2021/01/12 12:11:58;;;;;;;0.90;0.47;;;8.00;95.60;;;;;;5014039;28;20018;-74
2021/01/12 12:14:24;;;;;;;4.15;0.60;;;7.90;95.60;;;;;;5013731;28;20033;-75
2021/01/12 12:16:50;;;;;;;0.32;0.32;;;7.80;95.70;;;;;;5013833;28;20037;-75
2021/01/12 12:19:18;;;;;;;0.30;0.30;;;7.80;95.80;;;;;;4996086;28;20017;-77
2021/01/12 12:21:52;;;;;;;0.40;0.40;;;7.90;95.70;;;;;;4996202;28;20022;-76
2021/01/12 12:24:19;;;;;;;0.32;0.32;;;7.90;95.70;;;;;;4996045;28;20076;-77
2021/01/12 12:26:46;;;;;;;0.30;0.30;;;7.90;95.70;;;;;;4996189;28;20026;-76
2021/01/12 12:29:12;;;;;;;0.45;0.40;;;7.90;95.70;;;;;;5013719;28;20026;-76
2021/01/12 12:31:38;;;;;;;0.80;0.40;;;7.90;95.60;;;;;;4995612;28;20022;-76
2021/01/12 12:34:04;;;;;;;0.65;0.45;;;7.80;95.50;;;;;;5013259;28;20018;-76
2021/01/12 12:36:30;;;;;;;0.40;0.40;;;7.70;95.40;;;;;;5012441;28;20117;-76
2021/01/12 12:38:56;;;;;;;0.30;0.30;;;7.70;95.60;;;;;;4995687;28;20053;-76
2021/01/12 12:41:22;;;;;;;0.47;0.30;;;7.70;95.60;;;;;;5013184;28;20045;-77
2021/01/12 12:43:48;;;;;;;0.30;0.30;;;7.70;95.60;;;;;;4996076;28;20112;-76
2021/01/12 12:46:16;;;;;;;0.40;0.40;;;7.70;95.50;;;;;;4995712;28;20014;-76
2021/01/12 12:48:43;;;;;;;0.77;0.57;;;7.80;95.90;;;;;;5013036;28;20096;-76
2021/01/12 12:51:10;;;;;;;0.30;0.30;;;7.70;95.50;;;;;;5013471;28;20018;-76
2021/01/12 12:53:38;;;;;;;0.55;0.40;;;7.70;95.50;;;;;;5013171;28;20033;-78
2021/01/12 12:56:11;;;;;;;1.25;0.40;;;7.70;95.50;;;;;;5013181;28;20177;-76
2021/01/12 12:58:37;;;;;;;0.30;0.30;;;7.70;95.50;;;;;;5013407;28;20029;-76
2021/01/12 13:01:03;;;;;;;0.50;0.40;;;7.70;95.50;;;;;;5013653;28;20018;-77